sensor_id;sensor_type;location;lat;lon;timestamp;temperature;humidity
6740;DHT22;3407;49.882;10.920;2023-08-30T00:00:31;12.60;1.00
6740;DHT22;3407;49.882;10.920;2023-08-30T00:05:27;12.60;1.00
6740;DHT22;3407;49.882;10.920;2023-08-30T00:10:25;12.60;1.00
6740;DHT22;3407;49.882;10.920;2023-08-30T00:15:21;12.60;1.00
6740;DHT22;3407;49.882;10.920;2023-08-30T00:20:16;12.60;1.00
6740;DHT22;3407;49.882;10.920;2023-08-30T00:25:12;12.50;1.00
6740;DHT22;3407;49.882;10.920;2023-08-30T00:30:08;12.40;1.00
6740;DHT22;3407;49.882;10.920;2023-08-30T00:35:04;12.20;1.00
6740;DHT22;3407;49.882;10.920;2023-08-30T00:40:00;12.10;1.00
6740;DHT22;3407;49.882;10.920;2023-08-30T00:44:56;12.10;1.00
6740;DHT22;3407;49.882;10.920;2023-08-30T00:49:51;12.00;1.00
6740;DHT22;3407;49.882;10.920;2023-08-30T00:54:47;11.90;1.00
6740;DHT22;3407;49.882;10.920;2023-08-30T00:59:43;11.90;1.00
6740;DHT22;3407;49.882;10.920;2023-08-30T01:04:38;11.90;1.00
6740;DHT22;3407;49.882;10.920;2023-08-30T01:09:34;11.90;1.00
6740;DHT22;3407;49.882;10.920;2023-08-30T01:14:40;11.80;1.00
6740;DHT22;3407;49.882;10.920;2023-08-30T01:30:10;11.70;1.00
6740;DHT22;3407;49.882;10.920;2023-08-30T01:35:07;11.70;1.00
6740;DHT22;3407;49.882;10.920;2023-08-30T01:40:04;11.70;1.00
6740;DHT22;3407;49.882;10.920;2023-08-30T01:45:01;11.70;1.00
6740;DHT22;3407;49.882;10.920;2023-08-30T01:49:58;11.70;1.00
6740;DHT22;3407;49.882;10.920;2023-08-30T01:54:54;11.80;1.00
6740;DHT22;3407;49.882;10.920;2023-08-30T01:59:50;11.70;1.00
6740;DHT22;3407;49.882;10.920;2023-08-30T02:04:45;11.80;1.00
6740;DHT22;3407;49.882;10.920;2023-08-30T02:09:48;11.90;1.00
6740;DHT22;3407;49.882;10.920;2023-08-30T02:14:47;11.90;1.00
6740;DHT22;3407;49.882;10.920;2023-08-30T02:19:44;11.90;1.00
6740;DHT22;3407;49.882;10.920;2023-08-30T02:24:40;11.90;1.00
6740;DHT22;3407;49.882;10.920;2023-08-30T02:29:35;11.90;1.00
6740;DHT22;3407;49.882;10.920;2023-08-30T02:34:31;11.80;1.00
6740;DHT22;3407;49.882;10.920;2023-08-30T02:39:26;11.80;1.00
6740;DHT22;3407;49.882;10.920;2023-08-30T02:44:22;11.60;1.00
6740;DHT22;3407;49.882;10.920;2023-08-30T02:49:17;11.50;1.00
6740;DHT22;3407;49.882;10.920;2023-08-30T02:54:13;11.50;1.00
6740;DHT22;3407;49.882;10.920;2023-08-30T02:59:09;11.50;1.00
6740;DHT22;3407;49.882;10.920;2023-08-30T03:04:05;11.50;1.00
6740;DHT22;3407;49.882;10.920;2023-08-30T03:09:02;11.50;1.00
6740;DHT22;3407;49.882;10.920;2023-08-30T03:13:58;11.50;1.00
6740;DHT22;3407;49.882;10.920;2023-08-30T03:18:53;11.50;1.00
6740;DHT22;3407;49.882;10.920;2023-08-30T03:23:49;11.60;1.00
6740;DHT22;3407;49.882;10.920;2023-08-30T03:28:45;11.50;1.00
6740;DHT22;3407;49.882;10.920;2023-08-30T03:33:40;11.50;1.00
6740;DHT22;3407;49.882;10.920;2023-08-30T03:38:39;11.40;1.00
6740;DHT22;3407;49.882;10.920;2023-08-30T03:43:34;11.30;1.00
6740;DHT22;3407;49.882;10.920;2023-08-30T03:48:30;11.20;1.00
6740;DHT22;3407;49.882;10.920;2023-08-30T03:53:26;11.20;3.60
6740;DHT22;3407;49.882;10.920;2023-08-30T03:58:22;11.30;18.00
6740;DHT22;3407;49.882;10.920;2023-08-30T04:03:17;11.30;17.90
6740;DHT22;3407;49.882;10.920;2023-08-30T04:08:13;11.30;20.00
6740;DHT22;3407;49.882;10.920;2023-08-30T04:13:08;11.40;27.30
6740;DHT22;3407;49.882;10.920;2023-08-30T04:18:06;11.40;23.90
6740;DHT22;3407;49.882;10.920;2023-08-30T04:23:02;11.40;25.40
6740;DHT22;3407;49.882;10.920;2023-08-30T04:27:58;11.30;24.60
6740;DHT22;3407;49.882;10.920;2023-08-30T04:32:53;11.40;29.40
6740;DHT22;3407;49.882;10.920;2023-08-30T04:37:49;11.30;26.90
6740;DHT22;3407;49.882;10.920;2023-08-30T04:42:44;11.30;25.80
6740;DHT22;3407;49.882;10.920;2023-08-30T04:47:40;11.30;32.30
6740;DHT22;3407;49.882;10.920;2023-08-30T04:52:38;11.40;34.10
6740;DHT22;3407;49.882;10.920;2023-08-30T04:57:33;11.40;33.10
6740;DHT22;3407;49.882;10.920;2023-08-30T05:02:29;11.50;34.60
6740;DHT22;3407;49.882;10.920;2023-08-30T05:07:25;11.70;38.30
6740;DHT22;3407;49.882;10.920;2023-08-30T05:12:20;11.80;40.90
6740;DHT22;3407;49.882;10.920;2023-08-30T05:17:16;12.00;43.80
6740;DHT22;3407;49.882;10.920;2023-08-30T05:22:11;12.20;44.20
6740;DHT22;3407;49.882;10.920;2023-08-30T05:27:07;12.30;43.90
6740;DHT22;3407;49.882;10.920;2023-08-30T05:32:03;12.50;44.30
6740;DHT22;3407;49.882;10.920;2023-08-30T05:36:59;12.70;41.30
6740;DHT22;3407;49.882;10.920;2023-08-30T05:41:54;12.80;39.40
6740;DHT22;3407;49.882;10.920;2023-08-30T05:46:50;12.90;37.70
6740;DHT22;3407;49.882;10.920;2023-08-30T05:51:45;13.00;36.00
6740;DHT22;3407;49.882;10.920;2023-08-30T05:56:42;13.10;28.20
6740;DHT22;3407;49.882;10.920;2023-08-30T06:01:38;13.20;29.70
6740;DHT22;3407;49.882;10.920;2023-08-30T06:06:33;13.30;24.50
6740;DHT22;3407;49.882;10.920;2023-08-30T06:11:29;13.40;20.10
6740;DHT22;3407;49.882;10.920;2023-08-30T06:16:25;13.50;11.50
6740;DHT22;3407;49.882;10.920;2023-08-30T06:21:20;13.60;4.40
6740;DHT22;3407;49.882;10.920;2023-08-30T06:26:16;13.70;1.80
6740;DHT22;3407;49.882;10.920;2023-08-30T06:31:11;13.60;1.00
6740;DHT22;3407;49.882;10.920;2023-08-30T06:36:07;13.70;1.00
6740;DHT22;3407;49.882;10.920;2023-08-30T06:41:02;13.70;1.00
6740;DHT22;3407;49.882;10.920;2023-08-30T06:45:58;13.80;1.00
6740;DHT22;3407;49.882;10.920;2023-08-30T06:50:58;14.00;1.00
6740;DHT22;3407;49.882;10.920;2023-08-30T06:56:00;14.20;1.00
6740;DHT22;3407;49.882;10.920;2023-08-30T07:00:57;14.60;1.00
6740;DHT22;3407;49.882;10.920;2023-08-30T07:05:53;14.80;1.00
6740;DHT22;3407;49.882;10.920;2023-08-30T07:10:48;14.90;1.00
6740;DHT22;3407;49.882;10.920;2023-08-30T07:15:45;15.00;1.00
6740;DHT22;3407;49.882;10.920;2023-08-30T07:20:42;15.10;1.00
6740;DHT22;3407;49.882;10.920;2023-08-30T07:25:38;15.20;1.00
6740;DHT22;3407;49.882;10.920;2023-08-30T07:30:33;15.50;1.00
6740;DHT22;3407;49.882;10.920;2023-08-30T07:35:31;15.60;1.00
6740;DHT22;3407;49.882;10.920;2023-08-30T07:40:28;15.60;1.00
6740;DHT22;3407;49.882;10.920;2023-08-30T07:45:24;15.80;1.00
6740;DHT22;3407;49.882;10.920;2023-08-30T07:50:19;15.90;99.90
6740;DHT22;3407;49.882;10.920;2023-08-30T07:55:15;16.00;99.90
6740;DHT22;3407;49.882;10.920;2023-08-30T08:00:11;16.00;99.90
6740;DHT22;3407;49.882;10.920;2023-08-30T08:05:07;16.00;99.90
6740;DHT22;3407;49.882;10.920;2023-08-30T08:10:03;16.10;1.00
6740;DHT22;3407;49.882;10.920;2023-08-30T08:14:59;16.20;1.00
6740;DHT22;3407;49.882;10.920;2023-08-30T08:19:54;16.30;1.00
6740;DHT22;3407;49.882;10.920;2023-08-30T08:24:50;16.50;1.00
6740;DHT22;3407;49.882;10.920;2023-08-30T08:29:46;16.70;99.90
6740;DHT22;3407;49.882;10.920;2023-08-30T08:34:42;17.00;99.90
6740;DHT22;3407;49.882;10.920;2023-08-30T08:39:37;17.20;99.90
6740;DHT22;3407;49.882;10.920;2023-08-30T08:44:34;17.50;1.00
6740;DHT22;3407;49.882;10.920;2023-08-30T08:49:30;18.40;1.00
6740;DHT22;3407;49.882;10.920;2023-08-30T08:54:26;18.80;1.00
6740;DHT22;3407;49.882;10.920;2023-08-30T08:59:22;19.10;99.90
6740;DHT22;3407;49.882;10.920;2023-08-30T09:04:19;19.70;1.00
6740;DHT22;3407;49.882;10.920;2023-08-30T09:09:15;20.80;1.00
6740;DHT22;3407;49.882;10.920;2023-08-30T09:14:11;22.80;99.90
6740;DHT22;3407;49.882;10.920;2023-08-30T09:19:06;24.40;99.90
6740;DHT22;3407;49.882;10.920;2023-08-30T09:24:06;25.40;99.90
6740;DHT22;3407;49.882;10.920;2023-08-30T09:29:06;24.70;99.90
6740;DHT22;3407;49.882;10.920;2023-08-30T09:34:02;24.50;99.90
6740;DHT22;3407;49.882;10.920;2023-08-30T09:38:58;24.20;99.90
6740;DHT22;3407;49.882;10.920;2023-08-30T09:43:54;24.70;99.90
6740;DHT22;3407;49.882;10.920;2023-08-30T09:48:49;26.20;99.90
6740;DHT22;3407;49.882;10.920;2023-08-30T09:53:49;27.20;99.90
6740;DHT22;3407;49.882;10.920;2023-08-30T09:58:46;27.80;99.90
6740;DHT22;3407;49.882;10.920;2023-08-30T10:03:42;27.50;99.90
6740;DHT22;3407;49.882;10.920;2023-08-30T10:08:38;27.30;99.90
6740;DHT22;3407;49.882;10.920;2023-08-30T10:13:35;28.80;99.90
6740;DHT22;3407;49.882;10.920;2023-08-30T10:18:35;30.00;99.90
6740;DHT22;3407;49.882;10.920;2023-08-30T10:23:31;27.90;99.90
6740;DHT22;3407;49.882;10.920;2023-08-30T10:28:27;26.40;99.90
6740;DHT22;3407;49.882;10.920;2023-08-30T10:33:23;25.20;99.90
6740;DHT22;3407;49.882;10.920;2023-08-30T10:38:28;26.00;99.90
6740;DHT22;3407;49.882;10.920;2023-08-30T10:43:33;27.40;99.90
6740;DHT22;3407;49.882;10.920;2023-08-30T10:48:39;28.00;99.90
6740;DHT22;3407;49.882;10.920;2023-08-30T10:53:34;28.30;99.90
6740;DHT22;3407;49.882;10.920;2023-08-30T10:58:40;26.60;99.90
6740;DHT22;3407;49.882;10.920;2023-08-30T11:03:35;26.00;99.90
6740;DHT22;3407;49.882;10.920;2023-08-30T11:08:31;29.00;99.90
6740;DHT22;3407;49.882;10.920;2023-08-30T11:13:27;31.30;99.90
6740;DHT22;3407;49.882;10.920;2023-08-30T11:18:22;31.80;99.90
6740;DHT22;3407;49.882;10.920;2023-08-30T11:23:18;31.20;98.00
6740;DHT22;3407;49.882;10.920;2023-08-30T11:28:22;29.70;98.60
6740;DHT22;3407;49.882;10.920;2023-08-30T11:33:17;27.50;99.90
6740;DHT22;3407;49.882;10.920;2023-08-30T11:38:14;25.70;99.90
6740;DHT22;3407;49.882;10.920;2023-08-30T11:43:10;24.70;99.90
6740;DHT22;3407;49.882;10.920;2023-08-30T11:48:06;24.50;99.90
6740;DHT22;3407;49.882;10.920;2023-08-30T11:53:02;23.50;99.90
6740;DHT22;3407;49.882;10.920;2023-08-30T11:57:58;22.50;99.90
6740;DHT22;3407;49.882;10.920;2023-08-30T12:02:53;21.80;99.90
6740;DHT22;3407;49.882;10.920;2023-08-30T12:07:49;21.30;99.90
6740;DHT22;3407;49.882;10.920;2023-08-30T12:12:45;21.20;99.90
6740;DHT22;3407;49.882;10.920;2023-08-30T12:17:40;21.00;99.90
6740;DHT22;3407;49.882;10.920;2023-08-30T12:22:39;21.20;99.90
6740;DHT22;3407;49.882;10.920;2023-08-30T12:27:35;21.50;99.90
6740;DHT22;3407;49.882;10.920;2023-08-30T12:32:31;21.80;99.90
6740;DHT22;3407;49.882;10.920;2023-08-30T12:37:27;21.60;99.90
6740;DHT22;3407;49.882;10.920;2023-08-30T12:42:22;21.30;99.90
6740;DHT22;3407;49.882;10.920;2023-08-30T12:47:18;21.10;99.90
6740;DHT22;3407;49.882;10.920;2023-08-30T12:52:13;20.50;99.90
6740;DHT22;3407;49.882;10.920;2023-08-30T12:57:09;20.20;99.90
6740;DHT22;3407;49.882;10.920;2023-08-30T13:02:05;19.80;99.90
6740;DHT22;3407;49.882;10.920;2023-08-30T13:07:00;19.00;22.10
6740;DHT22;3407;49.882;10.920;2023-08-30T13:11:56;19.20;99.90
6740;DHT22;3407;49.882;10.920;2023-08-30T13:16:52;19.20;99.90
6740;DHT22;3407;49.882;10.920;2023-08-30T13:21:47;19.40;1.00
6740;DHT22;3407;49.882;10.920;2023-08-30T13:26:43;19.50;99.90
6740;DHT22;3407;49.882;10.920;2023-08-30T13:31:38;19.40;99.90
6740;DHT22;3407;49.882;10.920;2023-08-30T13:36:34;19.30;1.00
6740;DHT22;3407;49.882;10.920;2023-08-30T13:41:31;19.20;99.90
6740;DHT22;3407;49.882;10.920;2023-08-30T13:46:27;19.40;99.90
6740;DHT22;3407;49.882;10.920;2023-08-30T13:51:24;19.70;1.00
6740;DHT22;3407;49.882;10.920;2023-08-30T13:56:20;20.20;99.90
6740;DHT22;3407;49.882;10.920;2023-08-30T14:01:15;20.80;59.80
6740;DHT22;3407;49.882;10.920;2023-08-30T14:06:11;21.40;1.00
6740;DHT22;3407;49.882;10.920;2023-08-30T14:11:07;21.90;99.90
6740;DHT22;3407;49.882;10.920;2023-08-30T14:16:03;22.20;99.90
6740;DHT22;3407;49.882;10.920;2023-08-30T14:21:02;22.50;99.90
6740;DHT22;3407;49.882;10.920;2023-08-30T14:25:58;22.80;99.90
6740;DHT22;3407;49.882;10.920;2023-08-30T14:30:54;23.30;99.90
6740;DHT22;3407;49.882;10.920;2023-08-30T14:35:49;23.10;99.90
6740;DHT22;3407;49.882;10.920;2023-08-30T14:40:57;22.70;99.90
6740;DHT22;3407;49.882;10.920;2023-08-30T14:45:59;22.60;99.90
6740;DHT22;3407;49.882;10.920;2023-08-30T14:50:55;22.60;99.90
6740;DHT22;3407;49.882;10.920;2023-08-30T14:55:50;22.60;99.90
6740;DHT22;3407;49.882;10.920;2023-08-30T15:00:49;22.50;99.90
6740;DHT22;3407;49.882;10.920;2023-08-30T15:05:52;22.20;99.90
6740;DHT22;3407;49.882;10.920;2023-08-30T15:10:49;22.10;99.90
6740;DHT22;3407;49.882;10.920;2023-08-30T15:15:46;22.00;99.90
6740;DHT22;3407;49.882;10.920;2023-08-30T15:20:42;21.90;99.90
6740;DHT22;3407;49.882;10.920;2023-08-30T15:25:39;21.70;99.90
6740;DHT22;3407;49.882;10.920;2023-08-30T15:30:34;21.60;99.90
6740;DHT22;3407;49.882;10.920;2023-08-30T15:35:30;21.50;99.90
6740;DHT22;3407;49.882;10.920;2023-08-30T15:40:26;21.40;99.90
6740;DHT22;3407;49.882;10.920;2023-08-30T15:45:21;21.40;99.90
6740;DHT22;3407;49.882;10.920;2023-08-30T15:50:16;21.60;99.90
6740;DHT22;3407;49.882;10.920;2023-08-30T15:55:12;21.70;99.90
6740;DHT22;3407;49.882;10.920;2023-08-30T16:00:08;21.70;99.90
6740;DHT22;3407;49.882;10.920;2023-08-30T16:05:04;21.40;99.90
6740;DHT22;3407;49.882;10.920;2023-08-30T16:10:00;20.90;99.90
6740;DHT22;3407;49.882;10.920;2023-08-30T16:14:55;20.70;99.90
6740;DHT22;3407;49.882;10.920;2023-08-30T16:19:51;20.60;99.90
6740;DHT22;3407;49.882;10.920;2023-08-30T16:24:46;20.60;99.90
6740;DHT22;3407;49.882;10.920;2023-08-30T16:29:42;20.40;99.90
6740;DHT22;3407;49.882;10.920;2023-08-30T16:34:37;20.30;99.90
6740;DHT22;3407;49.882;10.920;2023-08-30T16:39:34;20.20;99.90
6740;DHT22;3407;49.882;10.920;2023-08-30T16:44:29;20.10;99.90
6740;DHT22;3407;49.882;10.920;2023-08-30T16:49:25;20.10;99.90
6740;DHT22;3407;49.882;10.920;2023-08-30T16:54:21;19.90;99.90
6740;DHT22;3407;49.882;10.920;2023-08-30T16:59:16;19.70;99.90
6740;DHT22;3407;49.882;10.920;2023-08-30T17:04:12;19.50;99.90
6740;DHT22;3407;49.882;10.920;2023-08-30T17:09:09;19.30;99.90
6740;DHT22;3407;49.882;10.920;2023-08-30T17:14:05;19.20;99.90
6740;DHT22;3407;49.882;10.920;2023-08-30T17:19:00;19.00;99.90
6740;DHT22;3407;49.882;10.920;2023-08-30T17:23:56;19.00;1.00
6740;DHT22;3407;49.882;10.920;2023-08-30T17:28:51;18.90;1.00
6740;DHT22;3407;49.882;10.920;2023-08-30T17:33:47;18.70;99.90
6740;DHT22;3407;49.882;10.920;2023-08-30T17:38:42;18.60;99.90
6740;DHT22;3407;49.882;10.920;2023-08-30T17:43:39;18.40;1.00
6740;DHT22;3407;49.882;10.920;2023-08-30T17:48:34;18.20;1.00
6740;DHT22;3407;49.882;10.920;2023-08-30T17:53:30;18.00;1.00
6740;DHT22;3407;49.882;10.920;2023-08-30T17:58:26;17.80;1.00
6740;DHT22;3407;49.882;10.920;2023-08-30T18:03:25;17.70;1.00
6740;DHT22;3407;49.882;10.920;2023-08-30T18:08:24;17.50;99.90
6740;DHT22;3407;49.882;10.920;2023-08-30T18:13:19;17.30;1.00
6740;DHT22;3407;49.882;10.920;2023-08-30T18:18:15;17.20;1.00
6740;DHT22;3407;49.882;10.920;2023-08-30T18:23:10;17.10;1.00
6740;DHT22;3407;49.882;10.920;2023-08-30T18:28:06;16.90;99.90
6740;DHT22;3407;49.882;10.920;2023-08-30T18:33:03;16.80;1.00
6740;DHT22;3407;49.882;10.920;2023-08-30T18:38:00;16.70;1.00
6740;DHT22;3407;49.882;10.920;2023-08-30T18:42:58;16.70;99.90
6740;DHT22;3407;49.882;10.920;2023-08-30T18:47:53;16.50;1.00
6740;DHT22;3407;49.882;10.920;2023-08-30T18:52:50;16.30;99.90
6740;DHT22;3407;49.882;10.920;2023-08-30T18:57:46;16.20;1.00
6740;DHT22;3407;49.882;10.920;2023-08-30T19:02:42;16.10;99.90
6740;DHT22;3407;49.882;10.920;2023-08-30T19:07:38;15.90;99.90
6740;DHT22;3407;49.882;10.920;2023-08-30T19:12:33;15.80;99.90
6740;DHT22;3407;49.882;10.920;2023-08-30T19:17:29;15.70;99.90
6740;DHT22;3407;49.882;10.920;2023-08-30T19:22:25;15.60;99.90
6740;DHT22;3407;49.882;10.920;2023-08-30T19:27:21;15.50;1.00
6740;DHT22;3407;49.882;10.920;2023-08-30T19:32:16;15.40;1.00
6740;DHT22;3407;49.882;10.920;2023-08-30T19:37:12;15.30;99.90
6740;DHT22;3407;49.882;10.920;2023-08-30T19:42:07;15.30;99.90
6740;DHT22;3407;49.882;10.920;2023-08-30T19:47:03;15.30;99.90
6740;DHT22;3407;49.882;10.920;2023-08-30T19:51:59;15.30;99.90
6740;DHT22;3407;49.882;10.920;2023-08-30T19:56:54;15.40;1.00
6740;DHT22;3407;49.882;10.920;2023-08-30T20:01:50;15.40;99.90
6740;DHT22;3407;49.882;10.920;2023-08-30T20:06:45;15.40;1.00
6740;DHT22;3407;49.882;10.920;2023-08-30T20:11:41;15.50;99.90
6740;DHT22;3407;49.882;10.920;2023-08-30T20:16:36;15.50;1.00
6740;DHT22;3407;49.882;10.920;2023-08-30T20:21:32;15.50;1.00
6740;DHT22;3407;49.882;10.920;2023-08-30T20:26:28;15.60;1.00
6740;DHT22;3407;49.882;10.920;2023-08-30T20:31:24;15.50;99.90
6740;DHT22;3407;49.882;10.920;2023-08-30T20:36:19;15.40;1.00
6740;DHT22;3407;49.882;10.920;2023-08-30T20:41:15;15.40;99.90
6740;DHT22;3407;49.882;10.920;2023-08-30T20:46:10;15.30;1.00
6740;DHT22;3407;49.882;10.920;2023-08-30T20:51:06;15.20;99.90
6740;DHT22;3407;49.882;10.920;2023-08-30T20:56:11;15.20;1.00
6740;DHT22;3407;49.882;10.920;2023-08-30T21:01:07;15.30;99.90
6740;DHT22;3407;49.882;10.920;2023-08-30T21:06:03;15.30;1.00
6740;DHT22;3407;49.882;10.920;2023-08-30T21:10:59;15.30;99.90
6740;DHT22;3407;49.882;10.920;2023-08-30T21:15:55;15.30;1.00
6740;DHT22;3407;49.882;10.920;2023-08-30T21:20:50;15.40;1.00
6740;DHT22;3407;49.882;10.920;2023-08-30T21:25:50;15.50;1.00
6740;DHT22;3407;49.882;10.920;2023-08-30T21:30:45;15.60;1.00
6740;DHT22;3407;49.882;10.920;2023-08-30T21:35:43;15.70;1.00
6740;DHT22;3407;49.882;10.920;2023-08-30T21:40:40;15.70;99.90
6740;DHT22;3407;49.882;10.920;2023-08-30T21:45:37;15.60;99.90
6740;DHT22;3407;49.882;10.920;2023-08-30T21:50:33;15.60;99.90
6740;DHT22;3407;49.882;10.920;2023-08-30T21:55:29;15.60;99.90
6740;DHT22;3407;49.882;10.920;2023-08-30T22:00:24;15.50;1.00
6740;DHT22;3407;49.882;10.920;2023-08-30T22:05:20;15.50;99.90
6740;DHT22;3407;49.882;10.920;2023-08-30T22:10:15;15.40;29.70
6740;DHT22;3407;49.882;10.920;2023-08-30T22:15:12;15.40;99.90
6740;DHT22;3407;49.882;10.920;2023-08-30T22:20:10;15.40;99.90
6740;DHT22;3407;49.882;10.920;2023-08-30T22:25:07;15.40;99.90
6740;DHT22;3407;49.882;10.920;2023-08-30T22:30:03;15.20;99.90
6740;DHT22;3407;49.882;10.920;2023-08-30T22:34:59;15.10;1.00
6740;DHT22;3407;49.882;10.920;2023-08-30T22:39:55;15.00;1.00
6740;DHT22;3407;49.882;10.920;2023-08-30T22:44:51;14.90;99.90
6740;DHT22;3407;49.882;10.920;2023-08-30T22:49:47;14.90;99.90
6740;DHT22;3407;49.882;10.920;2023-08-30T22:54:42;14.80;1.00
6740;DHT22;3407;49.882;10.920;2023-08-30T22:59:38;14.70;1.00
6740;DHT22;3407;49.882;10.920;2023-08-30T23:04:33;14.70;1.00
6740;DHT22;3407;49.882;10.920;2023-08-30T23:09:29;14.60;1.00
6740;DHT22;3407;49.882;10.920;2023-08-30T23:14:25;14.50;1.00
6740;DHT22;3407;49.882;10.920;2023-08-30T23:19:21;14.30;1.00
6740;DHT22;3407;49.882;10.920;2023-08-30T23:24:16;14.20;1.00
6740;DHT22;3407;49.882;10.920;2023-08-30T23:29:12;14.10;99.90
6740;DHT22;3407;49.882;10.920;2023-08-30T23:34:10;14.10;99.90
6740;DHT22;3407;49.882;10.920;2023-08-30T23:39:05;14.10;99.90
6740;DHT22;3407;49.882;10.920;2023-08-30T23:44:03;14.00;99.90
6740;DHT22;3407;49.882;10.920;2023-08-30T23:48:59;14.00;99.90
6740;DHT22;3407;49.882;10.920;2023-08-30T23:53:55;14.00;99.90
6740;DHT22;3407;49.882;10.920;2023-08-30T23:58:51;14.00;99.90
